Aviation Digital Data Service (ADDS)

Output produced by METARs form (1321 UTC 24 August 2019)
found at http://www.aviationweather.gov/metar/data/
 
METAR text: KLGB 241253Z AUTO 00000KT 10SM CLR 20/17 A2990 RMK AO2 SLP125 T02000167
Conditions at: KLGB (LONG BEACH , CA, US) observed 1253 UTC 24 August 2019
Temperature: 20.0°C (68°F)
Dewpoint: 16.7°C (62°F) [RH = 81%]
Pressure (altimeter): 29.90 inches Hg (1012.6 mb)
[Sea-level pressure: 1012.5 mb]
Winds: calm
Visibility: 10 or more miles (16+ km)
Ceiling: at least 12,000 feet AGL
Clouds: sky clear below 12,000 feet AGL
Weather: automated observation with no human augmentation;
there may or may not be significant weather present at this time

METAR text: KLGB 241153Z AUTO 00000KT 10SM CLR 20/17 A2989 RMK AO2 SLP120 T02000167 10211 20200 56007
Conditions at: KLGB (LONG BEACH , CA, US) observed 1153 UTC 24 August 2019
Temperature: 20.0°C (68°F)
Dewpoint: 16.7°C (62°F) [RH = 81%]
Pressure (altimeter): 29.89 inches Hg (1012.3 mb)
[Sea-level pressure: 1012.0 mb]
Winds: calm
Visibility: 10 or more miles (16+ km)
Ceiling: at least 12,000 feet AGL
Clouds: sky clear below 12,000 feet AGL
Weather: automated observation with no human augmentation;
there may or may not be significant weather present at this time

METAR text: KLGB 241053Z AUTO 00000KT 10SM CLR 21/17 A2989 RMK AO2 SLP120 T02060167
Conditions at: KLGB (LONG BEACH , CA, US) observed 1053 UTC 24 August 2019
Temperature: 20.6°C (69°F)
Dewpoint: 16.7°C (62°F) [RH = 78%]
Pressure (altimeter): 29.89 inches Hg (1012.3 mb)
[Sea-level pressure: 1012.0 mb]
Winds: calm
Visibility: 10 or more miles (16+ km)
Ceiling: at least 12,000 feet AGL
Clouds: sky clear below 12,000 feet AGL
Weather: automated observation with no human augmentation;
there may or may not be significant weather present at this time

METAR text: KLGB 240953Z AUTO 00000KT 10SM CLR 21/17 A2990 RMK AO2 SLP124 T02060167
Conditions at: KLGB (LONG BEACH , CA, US) observed 0953 UTC 24 August 2019
Temperature: 20.6°C (69°F)
Dewpoint: 16.7°C (62°F) [RH = 78%]
Pressure (altimeter): 29.90 inches Hg (1012.6 mb)
[Sea-level pressure: 1012.4 mb]
Winds: calm
Visibility: 10 or more miles (16+ km)
Ceiling: at least 12,000 feet AGL
Clouds: sky clear below 12,000 feet AGL
Weather: automated observation with no human augmentation;
there may or may not be significant weather present at this time

METAR text: KLGB 240853Z AUTO 00000KT 10SM CLR 21/17 A2991 RMK AO2 SLP127 T02060167 50010
Conditions at: KLGB (LONG BEACH , CA, US) observed 0853 UTC 24 August 2019
Temperature: 20.6°C (69°F)
Dewpoint: 16.7°C (62°F) [RH = 78%]
Pressure (altimeter): 29.91 inches Hg (1013.0 mb)
[Sea-level pressure: 1012.7 mb]
Winds: calm
Visibility: 10 or more miles (16+ km)
Ceiling: at least 12,000 feet AGL
Clouds: sky clear below 12,000 feet AGL
Weather: automated observation with no human augmentation;
there may or may not be significant weather present at this time

METAR text: KLGB 240753Z AUTO 16003KT 10SM CLR 21/17 A2991 RMK AO2 SLP128 T02110167 402500206
Conditions at: KLGB (LONG BEACH , CA, US) observed 0753 UTC 24 August 2019
Temperature: 21.1°C (70°F)
Dewpoint: 16.7°C (62°F) [RH = 76%]
Pressure (altimeter): 29.91 inches Hg (1013.0 mb)
[Sea-level pressure: 1012.8 mb]
Winds: from the SSE (160 degrees) at 3 MPH (3 knots; 1.5 m/s)
Visibility: 10 or more miles (16+ km)
Ceiling: at least 12,000 feet AGL
Clouds: sky clear below 12,000 feet AGL
Weather: automated observation with no human augmentation;
there may or may not be significant weather present at this time

METAR text: KLGB 240653Z AUTO 14004KT 10SM CLR 21/17 A2990 RMK AO2 SLP125 T02110172
Conditions at: KLGB (LONG BEACH , CA, US) observed 0653 UTC 24 August 2019
Temperature: 21.1°C (70°F)
Dewpoint: 17.2°C (63°F) [RH = 78%]
Pressure (altimeter): 29.90 inches Hg (1012.6 mb)
[Sea-level pressure: 1012.5 mb]
Winds: from the SE (140 degrees) at 5 MPH (4 knots; 2.1 m/s)
Visibility: 10 or more miles (16+ km)
Ceiling: at least 12,000 feet AGL
Clouds: sky clear below 12,000 feet AGL
Weather: automated observation with no human augmentation;
there may or may not be significant weather present at this time

METAR text: KLGB 240553Z 14004KT 10SM CLR 21/17 A2988 RMK AO2 SLP117 T02110167 10244 20211 51020
Conditions at: KLGB (LONG BEACH , CA, US) observed 0553 UTC 24 August 2019
Temperature: 21.1°C (70°F)
Dewpoint: 16.7°C (62°F) [RH = 76%]
Pressure (altimeter): 29.88 inches Hg (1011.9 mb)
[Sea-level pressure: 1011.7 mb]
Winds: from the SE (140 degrees) at 5 MPH (4 knots; 2.1 m/s)
Visibility: 10 or more miles (16+ km)
Ceiling: at least 12,000 feet AGL
Clouds: sky clear below 12,000 feet AGL
Weather: no significant weather observed at this time

METAR text: KLGB 240453Z 16005KT 10SM CLR 22/17 A2986 RMK AO2 SLP112 T02170167
Conditions at: KLGB (LONG BEACH , CA, US) observed 0453 UTC 24 August 2019
Temperature: 21.7°C (71°F)
Dewpoint: 16.7°C (62°F) [RH = 73%]
Pressure (altimeter): 29.86 inches Hg (1011.3 mb)
[Sea-level pressure: 1011.2 mb]
Winds: from the SSE (160 degrees) at 6 MPH (5 knots; 2.6 m/s)
Visibility: 10 or more miles (16+ km)
Ceiling: at least 12,000 feet AGL
Clouds: sky clear below 12,000 feet AGL
Weather: no significant weather observed at this time

METAR text: KLGB 240353Z 17005KT 10SM CLR 22/17 A2984 RMK AO2 SLP105 T02170167
Conditions at: KLGB (LONG BEACH , CA, US) observed 0353 UTC 24 August 2019
Temperature: 21.7°C (71°F)
Dewpoint: 16.7°C (62°F) [RH = 73%]
Pressure (altimeter): 29.84 inches Hg (1010.6 mb)
[Sea-level pressure: 1010.5 mb]
Winds: from the S (170 degrees) at 6 MPH (5 knots; 2.6 m/s)
Visibility: 10 or more miles (16+ km)
Ceiling: at least 12,000 feet AGL
Clouds: sky clear below 12,000 feet AGL
Weather: no significant weather observed at this time

METAR text: KLGB 240253Z 17005KT 10SM CLR 22/16 A2982 RMK AO2 SLP097 T02220161 53002
Conditions at: KLGB (LONG BEACH , CA, US) observed 0253 UTC 24 August 2019
Temperature: 22.2°C (72°F)
Dewpoint: 16.1°C (61°F) [RH = 68%]
Pressure (altimeter): 29.82 inches Hg (1009.9 mb)
[Sea-level pressure: 1009.7 mb]
Winds: from the S (170 degrees) at 6 MPH (5 knots; 2.6 m/s)
Visibility: 10 or more miles (16+ km)
Ceiling: at least 12,000 feet AGL
Clouds: sky clear below 12,000 feet AGL
Weather: no significant weather observed at this time

METAR text: KLGB 240153Z 19006KT 10SM CLR 23/14 A2980 RMK AO2 SLP092 T02330144
Conditions at: KLGB (LONG BEACH , CA, US) observed 0153 UTC 24 August 2019
Temperature: 23.3°C (74°F)
Dewpoint: 14.4°C (58°F) [RH = 57%]
Pressure (altimeter): 29.80 inches Hg (1009.2 mb)
[Sea-level pressure: 1009.2 mb]
Winds: from the S (190 degrees) at 7 MPH (6 knots; 3.1 m/s)
Visibility: 10 or more miles (16+ km)
Ceiling: at least 12,000 feet AGL
Clouds: sky clear below 12,000 feet AGL
Weather: no significant weather observed at this time

METAR text: KLGB 240053Z VRB06KT 10SM CLR 24/15 A2981 RMK AO2 SLP092 T02440150
Conditions at: KLGB (LONG BEACH , CA, US) observed 0053 UTC 24 August 2019
Temperature: 24.4°C (76°F)
Dewpoint: 15.0°C (59°F) [RH = 56%]
Pressure (altimeter): 29.81 inches Hg (1009.6 mb)
[Sea-level pressure: 1009.2 mb]
Winds: variable direction winds at 7 MPH (6 knots; 3.1 m/s)
Visibility: 10 or more miles (16+ km)
Ceiling: at least 12,000 feet AGL
Clouds: sky clear below 12,000 feet AGL
Weather: no significant weather observed at this time

METAR text: KLGB 232353Z 22006KT 10SM CLR 24/15 A2981 RMK AO2 SLP095 T02390150 10250 20233 56021
Conditions at: KLGB (LONG BEACH , CA, US) observed 2353 UTC 23 August 2019
Temperature: 23.9°C (75°F)
Dewpoint: 15.0°C (59°F) [RH = 57%]
Pressure (altimeter): 29.81 inches Hg (1009.6 mb)
[Sea-level pressure: 1009.5 mb]
Winds: from the SW (220 degrees) at 7 MPH (6 knots; 3.1 m/s)
Visibility: 10 or more miles (16+ km)
Ceiling: at least 12,000 feet AGL
Clouds: sky clear below 12,000 feet AGL
Weather: no significant weather observed at this time

METAR text: KLGB 232253Z 18006KT 10SM CLR 24/15 A2983 RMK AO2 SLP099 T02440150
Conditions at: KLGB (LONG BEACH , CA, US) observed 2253 UTC 23 August 2019
Temperature: 24.4°C (76°F)
Dewpoint: 15.0°C (59°F) [RH = 56%]
Pressure (altimeter): 29.83 inches Hg (1010.2 mb)
[Sea-level pressure: 1009.9 mb]
Winds: from the S (180 degrees) at 7 MPH (6 knots; 3.1 m/s)
Visibility: 10 or more miles (16+ km)
Ceiling: at least 12,000 feet AGL
Clouds: sky clear below 12,000 feet AGL
Weather: no significant weather observed at this time

METAR text: KLGB 232153Z 18007KT 10SM CLR 24/15 A2985 RMK AO2 SLP108 T02390150
Conditions at: KLGB (LONG BEACH , CA, US) observed 2153 UTC 23 August 2019
Temperature: 23.9°C (75°F)
Dewpoint: 15.0°C (59°F) [RH = 57%]
Pressure (altimeter): 29.85 inches Hg (1010.9 mb)
[Sea-level pressure: 1010.8 mb]
Winds: from the S (180 degrees) at 8 MPH (7 knots; 3.6 m/s)
Visibility: 10 or more miles (16+ km)
Ceiling: at least 12,000 feet AGL
Clouds: sky clear below 12,000 feet AGL
Weather: no significant weather observed at this time

METAR text: KLGB 232053Z 19006KT 10SM CLR 24/15 A2987 RMK AO2 SLP115 T02390150 58009
Conditions at: KLGB (LONG BEACH , CA, US) observed 2053 UTC 23 August 2019
Temperature: 23.9°C (75°F)
Dewpoint: 15.0°C (59°F) [RH = 57%]
Pressure (altimeter): 29.87 inches Hg (1011.6 mb)
[Sea-level pressure: 1011.5 mb]
Winds: from the S (190 degrees) at 7 MPH (6 knots; 3.1 m/s)
Visibility: 10 or more miles (16+ km)
Ceiling: at least 12,000 feet AGL
Clouds: sky clear below 12,000 feet AGL
Weather: no significant weather observed at this time

METAR text: KLGB 231953Z VRB06KT 10SM CLR 24/14 A2988 RMK AO2 SLP119 T02440144
Conditions at: KLGB (LONG BEACH , CA, US) observed 1953 UTC 23 August 2019
Temperature: 24.4°C (76°F)
Dewpoint: 14.4°C (58°F) [RH = 54%]
Pressure (altimeter): 29.88 inches Hg (1011.9 mb)
[Sea-level pressure: 1011.9 mb]
Winds: variable direction winds at 7 MPH (6 knots; 3.1 m/s)
Visibility: 10 or more miles (16+ km)
Ceiling: at least 12,000 feet AGL
Clouds: sky clear below 12,000 feet AGL
Weather: no significant weather observed at this time

METAR text: KLGB 231853Z 19008KT 10SM FEW023 24/14 A2990 RMK AO2 SLP123 T02390144
Conditions at: KLGB (LONG BEACH , CA, US) observed 1853 UTC 23 August 2019
Temperature: 23.9°C (75°F)
Dewpoint: 14.4°C (58°F) [RH = 55%]
Pressure (altimeter): 29.90 inches Hg (1012.6 mb)
[Sea-level pressure: 1012.3 mb]
Winds: from the S (190 degrees) at 9 MPH (8 knots; 4.1 m/s)
Visibility: 10 or more miles (16+ km)
Ceiling: at least 12,000 feet AGL
Clouds: few clouds at 2300 feet AGL
Weather: no significant weather observed at this time

METAR text: KLGB 231753Z 17009KT 10SM SCT026 24/14 A2990 RMK AO2 SLP125 T02390139 10239 20206 51005
Conditions at: KLGB (LONG BEACH , CA, US) observed 1753 UTC 23 August 2019
Temperature: 23.9°C (75°F)
Dewpoint: 13.9°C (57°F) [RH = 54%]
Pressure (altimeter): 29.90 inches Hg (1012.6 mb)
[Sea-level pressure: 1012.5 mb]
Winds: from the S (170 degrees) at 10 MPH (9 knots; 4.6 m/s)
Visibility: 10 or more miles (16+ km)
Ceiling: at least 12,000 feet AGL
Clouds: scattered clouds at 2600 feet AGL
Weather: no significant weather observed at this time

METAR text: KLGB 231750Z 20009KT 10SM SCT026 24/14 A2990 RMK AO2
Conditions at: KLGB (LONG BEACH , CA, US) observed 1750 UTC 23 August 2019
Temperature: 24.0°C (75°F)
Dewpoint: 14.0°C (57°F) [RH = 54%]
Pressure (altimeter): 29.90 inches Hg (1012.6 mb)
Winds: from the SSW (200 degrees) at 10 MPH (9 knots; 4.6 m/s)
Visibility: 10 or more miles (16+ km)
Ceiling: at least 12,000 feet AGL
Clouds: scattered clouds at 2600 feet AGL
Weather: no significant weather observed at this time

METAR text: KLGB 231653Z 13007KT 10SM OVC025 23/14 A2990 RMK AO2 SLP123 T02280144
Conditions at: KLGB (LONG BEACH , CA, US) observed 1653 UTC 23 August 2019
Temperature: 22.8°C (73°F)
Dewpoint: 14.4°C (58°F) [RH = 59%]
Pressure (altimeter): 29.90 inches Hg (1012.6 mb)
[Sea-level pressure: 1012.3 mb]
Winds: from the SE (130 degrees) at 8 MPH (7 knots; 3.6 m/s)
Visibility: 10 or more miles (16+ km)
Ceiling: 2500 feet AGL
Clouds: overcast cloud deck at 2500 feet AGL
Weather: no significant weather observed at this time

METAR text: KLGB 231553Z 08006KT 10SM OVC023 22/15 A2989 RMK AO2 SLP119 T02170150
Conditions at: KLGB (LONG BEACH , CA, US) observed 1553 UTC 23 August 2019
Temperature: 21.7°C (71°F)
Dewpoint: 15.0°C (59°F) [RH = 66%]
Pressure (altimeter): 29.89 inches Hg (1012.3 mb)
[Sea-level pressure: 1011.9 mb]
Winds: from the E (80 degrees) at 7 MPH (6 knots; 3.1 m/s)
Visibility: 10 or more miles (16+ km)
Ceiling: 2300 feet AGL
Clouds: overcast cloud deck at 2300 feet AGL
Weather: no significant weather observed at this time

METAR text: KLGB 231453Z 10006KT 10SM OVC020 21/15 A2987 RMK AO2 SLP115 T02110150 51015
Conditions at: KLGB (LONG BEACH , CA, US) observed 1453 UTC 23 August 2019
Temperature: 21.1°C (70°F)
Dewpoint: 15.0°C (59°F) [RH = 68%]
Pressure (altimeter): 29.87 inches Hg (1011.6 mb)
[Sea-level pressure: 1011.5 mb]
Winds: from the E (100 degrees) at 7 MPH (6 knots; 3.1 m/s)
Visibility: 10 or more miles (16+ km)
Ceiling: 2000 feet AGL
Clouds: overcast cloud deck at 2000 feet AGL
Weather: no significant weather observed at this time

METAR text: KLGB 231353Z 11004KT 10SM OVC019 21/15 A2986 RMK AO2 SLP111 T02110150
Conditions at: KLGB (LONG BEACH , CA, US) observed 1353 UTC 23 August 2019
Temperature: 21.1°C (70°F)
Dewpoint: 15.0°C (59°F) [RH = 68%]
Pressure (altimeter): 29.86 inches Hg (1011.3 mb)
[Sea-level pressure: 1011.1 mb]
Winds: from the ESE (110 degrees) at 5 MPH (4 knots; 2.1 m/s)
Visibility: 10 or more miles (16+ km)
Ceiling: 1900 feet AGL
Clouds: overcast cloud deck at 1900 feet AGL
Weather: no significant weather observed at this time

METAR text: KLGB 231253Z AUTO 15004KT 10SM OVC020 21/15 A2985 RMK AO2 SLP106 T02060150
Conditions at: KLGB (LONG BEACH , CA, US) observed 1253 UTC 23 August 2019
Temperature: 20.6°C (69°F)
Dewpoint: 15.0°C (59°F) [RH = 70%]
Pressure (altimeter): 29.85 inches Hg (1010.9 mb)
[Sea-level pressure: 1010.6 mb]
Winds: from the SSE (150 degrees) at 5 MPH (4 knots; 2.1 m/s)
Visibility: 10 or more miles (16+ km)
Ceiling: 2000 feet AGL
Clouds: overcast cloud deck at 2000 feet AGL
Weather: automated observation with no human augmentation;
there may or may not be significant weather present at this time

METAR text: KLGB 231153Z AUTO 11004KT 10SM OVC019 21/15 A2983 RMK AO2 SLP100 T02060150 10206 20200 53003
Conditions at: KLGB (LONG BEACH , CA, US) observed 1153 UTC 23 August 2019
Temperature: 20.6°C (69°F)
Dewpoint: 15.0°C (59°F) [RH = 70%]
Pressure (altimeter): 29.83 inches Hg (1010.2 mb)
[Sea-level pressure: 1010.0 mb]
Winds: from the ESE (110 degrees) at 5 MPH (4 knots; 2.1 m/s)
Visibility: 10 or more miles (16+ km)
Ceiling: 1900 feet AGL
Clouds: overcast cloud deck at 1900 feet AGL
Weather: automated observation with no human augmentation;
there may or may not be significant weather present at this time

METAR text: KLGB 231053Z AUTO 11005KT 10SM OVC016 21/15 A2982 RMK AO2 SLP098 T02060150
Conditions at: KLGB (LONG BEACH , CA, US) observed 1053 UTC 23 August 2019
Temperature: 20.6°C (69°F)
Dewpoint: 15.0°C (59°F) [RH = 70%]
Pressure (altimeter): 29.82 inches Hg (1009.9 mb)
[Sea-level pressure: 1009.8 mb]
Winds: from the ESE (110 degrees) at 6 MPH (5 knots; 2.6 m/s)
Visibility: 10 or more miles (16+ km)
Ceiling: 1600 feet AGL
Clouds: overcast cloud deck at 1600 feet AGL
Weather: automated observation with no human augmentation;
there may or may not be significant weather present at this time

METAR text: KLGB 230953Z AUTO 16005KT 10SM OVC016 21/15 A2982 RMK AO2 SLP098 T02060150
Conditions at: KLGB (LONG BEACH , CA, US) observed 0953 UTC 23 August 2019
Temperature: 20.6°C (69°F)
Dewpoint: 15.0°C (59°F) [RH = 70%]
Pressure (altimeter): 29.82 inches Hg (1009.9 mb)
[Sea-level pressure: 1009.8 mb]
Winds: from the SSE (160 degrees) at 6 MPH (5 knots; 2.6 m/s)
Visibility: 10 or more miles (16+ km)
Ceiling: 1600 feet AGL
Clouds: overcast cloud deck at 1600 feet AGL
Weather: automated observation with no human augmentation;
there may or may not be significant weather present at this time

METAR text: KLGB 230853Z AUTO 12005KT 10SM OVC016 21/15 A2982 RMK AO2 SLP097 T02060150 53005
Conditions at: KLGB (LONG BEACH , CA, US) observed 0853 UTC 23 August 2019
Temperature: 20.6°C (69°F)
Dewpoint: 15.0°C (59°F) [RH = 70%]
Pressure (altimeter): 29.82 inches Hg (1009.9 mb)
[Sea-level pressure: 1009.7 mb]
Winds: from the ESE (120 degrees) at 6 MPH (5 knots; 2.6 m/s)
Visibility: 10 or more miles (16+ km)
Ceiling: 1600 feet AGL
Clouds: overcast cloud deck at 1600 feet AGL
Weather: automated observation with no human augmentation;
there may or may not be significant weather present at this time

METAR text: KLGB 230809Z AUTO 13006KT 10SM OVC015 21/15 A2981 RMK AO2 T02060150
Conditions at: KLGB (LONG BEACH , CA, US) observed 0809 UTC 23 August 2019
Temperature: 20.6°C (69°F)
Dewpoint: 15.0°C (59°F) [RH = 70%]
Pressure (altimeter): 29.81 inches Hg (1009.6 mb)
Winds: from the SE (130 degrees) at 7 MPH (6 knots; 3.1 m/s)
Visibility: 10 or more miles (16+ km)
Ceiling: 1500 feet AGL
Clouds: overcast cloud deck at 1500 feet AGL
Weather: automated observation with no human augmentation;
there may or may not be significant weather present at this time

METAR text: KLGB 230753Z AUTO 13005KT 10SM OVC014 20/15 A2981 RMK AO2 SLP093 T02000150 402440200
Conditions at: KLGB (LONG BEACH , CA, US) observed 0753 UTC 23 August 2019
Temperature: 20.0°C (68°F)
Dewpoint: 15.0°C (59°F) [RH = 73%]
Pressure (altimeter): 29.81 inches Hg (1009.6 mb)
[Sea-level pressure: 1009.3 mb]
Winds: from the SE (130 degrees) at 6 MPH (5 knots; 2.6 m/s)
Visibility: 10 or more miles (16+ km)
Ceiling: 1400 feet AGL
Clouds: overcast cloud deck at 1400 feet AGL
Weather: automated observation with no human augmentation;
there may or may not be significant weather present at this time

METAR text: KLGB 230653Z AUTO 14006KT 10SM OVC014 20/16 A2980 RMK AO2 SLP091 T02000156
Conditions at: KLGB (LONG BEACH , CA, US) observed 0653 UTC 23 August 2019
Temperature: 20.0°C (68°F)
Dewpoint: 15.6°C (60°F) [RH = 76%]
Pressure (altimeter): 29.80 inches Hg (1009.2 mb)
[Sea-level pressure: 1009.1 mb]
Winds: from the SE (140 degrees) at 7 MPH (6 knots; 3.1 m/s)
Visibility: 10 or more miles (16+ km)
Ceiling: 1400 feet AGL
Clouds: overcast cloud deck at 1400 feet AGL
Weather: automated observation with no human augmentation;
there may or may not be significant weather present at this time

METAR text: KLGB 230609Z AUTO 17003KT 10SM BKN014 20/15 A2980 RMK AO2 T02000150
Conditions at: KLGB (LONG BEACH , CA, US) observed 0609 UTC 23 August 2019
Temperature: 20.0°C (68°F)
Dewpoint: 15.0°C (59°F) [RH = 73%]
Pressure (altimeter): 29.80 inches Hg (1009.2 mb)
Winds: from the S (170 degrees) at 3 MPH (3 knots; 1.5 m/s)
Visibility: 10 or more miles (16+ km)
Ceiling: 1400 feet AGL
Clouds: broken clouds at 1400 feet AGL
Weather: automated observation with no human augmentation;
there may or may not be significant weather present at this time

METAR text: KLGB 230553Z AUTO 00000KT 10SM FEW015 20/15 A2980 RMK AO2 SLP092 T02000150 10233 20200 53005
Conditions at: KLGB (LONG BEACH , CA, US) observed 0553 UTC 23 August 2019
Temperature: 20.0°C (68°F)
Dewpoint: 15.0°C (59°F) [RH = 73%]
Pressure (altimeter): 29.80 inches Hg (1009.2 mb)
[Sea-level pressure: 1009.2 mb]
Winds: calm
Visibility: 10 or more miles (16+ km)
Ceiling: at least 12,000 feet AGL
Clouds: few clouds at 1500 feet AGL
Weather: automated observation with no human augmentation;
there may or may not be significant weather present at this time

METAR text: KLGB 230453Z AUTO 15004KT 10SM CLR 20/15 A2979 RMK AO2 SLP088 T02000150
Conditions at: KLGB (LONG BEACH , CA, US) observed 0453 UTC 23 August 2019
Temperature: 20.0°C (68°F)
Dewpoint: 15.0°C (59°F) [RH = 73%]
Pressure (altimeter): 29.79 inches Hg (1008.9 mb)
[Sea-level pressure: 1008.8 mb]
Winds: from the SSE (150 degrees) at 5 MPH (4 knots; 2.1 m/s)
Visibility: 10 or more miles (16+ km)
Ceiling: at least 12,000 feet AGL
Clouds: sky clear below 12,000 feet AGL
Weather: automated observation with no human augmentation;
there may or may not be significant weather present at this time

METAR text: KLGB 230353Z AUTO 15004KT 10SM CLR 20/15 A2979 RMK AO2 SLP088 T02000150
Conditions at: KLGB (LONG BEACH , CA, US) observed 0353 UTC 23 August 2019
Temperature: 20.0°C (68°F)
Dewpoint: 15.0°C (59°F) [RH = 73%]
Pressure (altimeter): 29.79 inches Hg (1008.9 mb)
[Sea-level pressure: 1008.8 mb]
Winds: from the SSE (150 degrees) at 5 MPH (4 knots; 2.1 m/s)
Visibility: 10 or more miles (16+ km)
Ceiling: at least 12,000 feet AGL
Clouds: sky clear below 12,000 feet AGL
Weather: automated observation with no human augmentation;
there may or may not be significant weather present at this time

METAR text: KLGB 230338Z 18004KT 10SM SCT014 20/15 A2979 RMK AO2 T02000150
Conditions at: KLGB (LONG BEACH , CA, US) observed 0338 UTC 23 August 2019
Temperature: 20.0°C (68°F)
Dewpoint: 15.0°C (59°F) [RH = 73%]
Pressure (altimeter): 29.79 inches Hg (1008.9 mb)
Winds: from the S (180 degrees) at 5 MPH (4 knots; 2.1 m/s)
Visibility: 10 or more miles (16+ km)
Ceiling: at least 12,000 feet AGL
Clouds: scattered clouds at 1400 feet AGL
Weather: no significant weather observed at this time

METAR text: KLGB 230253Z 15007KT 10SM BKN014 21/16 A2979 RMK AO2 SLP087 T02060156 50004
Conditions at: KLGB (LONG BEACH , CA, US) observed 0253 UTC 23 August 2019
Temperature: 20.6°C (69°F)
Dewpoint: 15.6°C (60°F) [RH = 73%]
Pressure (altimeter): 29.79 inches Hg (1008.9 mb)
[Sea-level pressure: 1008.7 mb]
Winds: from the SSE (150 degrees) at 8 MPH (7 knots; 3.6 m/s)
Visibility: 10 or more miles (16+ km)
Ceiling: 1400 feet AGL
Clouds: broken clouds at 1400 feet AGL
Weather: no significant weather observed at this time

METAR text: KLGB 230251Z 17005KT 10SM BKN014 21/16 A2979 RMK AO2
Conditions at: KLGB (LONG BEACH , CA, US) observed 0251 UTC 23 August 2019
Temperature: 21.0°C (70°F)
Dewpoint: 16.0°C (61°F) [RH = 73%]
Pressure (altimeter): 29.79 inches Hg (1008.9 mb)
Winds: from the S (170 degrees) at 6 MPH (5 knots; 2.6 m/s)
Visibility: 10 or more miles (16+ km)
Ceiling: 1400 feet AGL
Clouds: broken clouds at 1400 feet AGL
Weather: no significant weather observed at this time

METAR text: KLGB 230153Z 16007KT 10SM CLR 21/16 A2978 RMK AO2 SLP085 T02110156
Conditions at: KLGB (LONG BEACH , CA, US) observed 0153 UTC 23 August 2019
Temperature: 21.1°C (70°F)
Dewpoint: 15.6°C (60°F) [RH = 71%]
Pressure (altimeter): 29.78 inches Hg (1008.5 mb)
[Sea-level pressure: 1008.5 mb]
Winds: from the SSE (160 degrees) at 8 MPH (7 knots; 3.6 m/s)
Visibility: 10 or more miles (16+ km)
Ceiling: at least 12,000 feet AGL
Clouds: sky clear below 12,000 feet AGL
Weather: no significant weather observed at this time

Forecast for: KLGB (LONG BEACH , CA, US)
Text: KLGB 241127Z 2412/2512 VRB03KT P6SM SKC
Forecast period: 1200 to 1700 UTC 24 August 2019
Forecast type: FROM: standard forecast or significant change
Winds: variable direction winds at 3 MPH (3 knots; 1.5 m/s)
Visibility: 6 or more miles 10+ km)
Clouds: clear skies
Weather: no significant weather forecast for this period
Text: FM241700 19009KT P6SM SKC
Forecast period: 1700 to 2300 UTC 24 August 2019
Forecast type: FROM: standard forecast or significant change
Winds: from the S (190 degrees) at 10 MPH (9 knots; 4.6 m/s)
Visibility: 6 or more miles 10+ km)
Clouds: clear skies
Weather: no significant weather forecast for this period
Text: FM242300 29008KT P6SM SKC
Forecast period: 2300 UTC 24 August 2019 to 0500 UTC 25 August 2019
Forecast type: FROM: standard forecast or significant change
Winds: from the WNW (290 degrees) at 9 MPH (8 knots; 4.1 m/s)
Visibility: 6 or more miles 10+ km)
Clouds: clear skies
Weather: no significant weather forecast for this period
Text: FM250500 VRB03KT P6SM SKC
Forecast period: 0500 to 0900 UTC 25 August 2019
Forecast type: FROM: standard forecast or significant change
Winds: variable direction winds at 3 MPH (3 knots; 1.5 m/s)
Visibility: 6 or more miles 10+ km)
Clouds: clear skies
Weather: no significant weather forecast for this period
Text: FM250900 VRB03KT P6SM OVC008
Forecast period: 0900 to 1200 UTC 25 August 2019
Forecast type: FROM: standard forecast or significant change
Winds: variable direction winds at 3 MPH (3 knots; 1.5 m/s)
Visibility: 6 or more miles 10+ km)
Ceiling: 800 feet AGL
Clouds: overcast cloud deck at 800 feet AGL
Weather: no significant weather forecast for this period